Time;durP1;ratioP1;P1;durP2;ratioP2;P2;SDS_P1;SDS_P2;PMS_P1;PMS_P2;Temp;Humidity;BMP_temperature;BMP_pressure;BME280_temperature;BME280_humidity;BME280_pressure;Samples;Min_cycle;Max_cycle;Signal;HPM_P1;HPM_P2
2022/05/20 00:01:03;;;;;;;18.20;6.82;;;18.70;99.90;;;;;;5011641;28;20065;-75
2022/05/20 00:03:31;;;;;;;11.45;6.07;;;18.70;99.90;;;;;;5011376;28;20029;-75
2022/05/20 00:05:59;;;;;;;18.50;6.88;;;18.70;99.90;;;;;;5010790;28;20037;-75
2022/05/20 00:08:27;;;;;;;14.80;6.47;;;18.60;99.90;;;;;;4993824;28;20524;-75
2022/05/20 00:10:53;;;;;;;16.77;6.53;;;18.70;99.90;;;;;;4993146;28;20104;-75
2022/05/20 00:13:25;;;;;;;18.02;7.35;;;18.70;99.90;;;;;;4995272;28;20424;-75
2022/05/20 00:15:51;;;;;;;19.40;6.37;;;18.60;99.90;;;;;;4995742;28;20441;-74
2022/05/20 00:18:17;;;;;;;16.48;6.72;;;18.60;99.90;;;;;;4995569;28;20316;-75
2022/05/20 00:20:43;;;;;;;21.58;7.07;;;18.60;99.90;;;;;;5001914;28;20057;-75
2022/05/20 00:23:09;;;;;;;21.35;5.97;;;18.60;99.90;;;;;;5015139;28;20520;-75
2022/05/20 00:25:46;;;;;;;20.27;6.70;;;18.60;99.90;;;;;;5014790;28;20029;-75
2022/05/20 00:28:24;;;;;;;21.88;7.50;;;18.60;99.90;;;;;;5014529;28;20046;-75
2022/05/20 00:30:53;;;;;;;17.83;7.18;;;18.60;99.90;;;;;;5014804;28;20022;-75
2022/05/20 00:33:20;;;;;;;14.20;5.88;;;18.60;99.90;;;;;;5006495;28;20096;-75
2022/05/20 00:35:46;;;;;;;15.23;6.25;;;18.60;99.90;;;;;;5000084;28;20092;-75
2022/05/20 00:38:12;;;;;;;13.73;5.65;;;18.50;99.90;;;;;;4995475;28;20026;-75
2022/05/20 00:40:39;;;;;;;15.57;5.50;;;18.60;99.90;;;;;;5002889;28;20030;-75
2022/05/20 00:43:24;;;;;;;16.23;6.18;;;18.60;99.90;;;;;;5014361;28;20053;-75
2022/05/20 00:45:51;;;;;;;13.48;6.25;;;18.60;99.90;;;;;;5013425;28;20030;-75
2022/05/20 00:48:16;;;;;;;13.10;7.10;;;18.50;99.90;;;;;;5014439;28;20022;-74
2022/05/20 00:50:47;;;;;;;13.32;6.40;;;18.50;99.90;;;;;;5014458;28;20458;-75
2022/05/20 00:53:17;;;;;;;17.23;6.80;;;18.50;99.90;;;;;;5014579;28;20073;-75
2022/05/20 00:55:44;;;;;;;14.38;6.65;;;18.50;99.90;;;;;;5013458;28;20132;-75
2022/05/20 00:58:19;;;;;;;22.95;7.00;;;18.50;99.90;;;;;;5014290;28;20022;-75
2022/05/20 01:00:50;;;;;;;16.13;5.88;;;18.50;99.90;;;;;;5013743;28;20041;-75
2022/05/20 01:03:19;;;;;;;15.57;6.63;;;18.50;99.90;;;;;;5014288;28;20097;-75
2022/05/20 01:05:48;;;;;;;16.50;6.28;;;18.50;99.90;;;;;;5014566;28;20022;-75
2022/05/20 01:08:21;;;;;;;16.98;5.93;;;18.50;99.90;;;;;;5014077;28;20033;-75
2022/05/20 01:10:47;;;;;;;17.05;6.07;;;18.50;99.90;;;;;;5013987;28;20029;-75
2022/05/20 01:13:15;;;;;;;11.45;5.70;;;18.50;99.90;;;;;;5014005;28;20034;-75
2022/05/20 01:15:42;;;;;;;20.27;6.15;;;18.50;99.90;;;;;;5014083;28;20026;-75
2022/05/20 01:18:08;;;;;;;13.75;6.18;;;18.50;99.90;;;;;;5014078;28;20454;-75
2022/05/20 01:20:38;;;;;;;19.02;5.57;;;18.50;99.90;;;;;;5013655;28;20030;-75
2022/05/20 01:23:08;;;;;;;13.57;5.47;;;18.50;99.90;;;;;;5004487;28;20034;-75
2022/05/20 01:25:35;;;;;;;16.77;5.68;;;18.50;99.90;;;;;;4994051;28;20512;-75
2022/05/20 01:28:01;;;;;;;16.92;5.70;;;18.50;99.90;;;;;;5003824;28;20064;-75
2022/05/20 01:30:29;;;;;;;15.43;5.20;;;18.50;99.90;;;;;;5013614;28;20057;-75
2022/05/20 01:32:55;;;;;;;13.55;5.35;;;18.50;99.90;;;;;;5013603;28;20022;-75
2022/05/20 01:35:28;;;;;;;14.82;5.20;;;18.50;99.90;;;;;;5014023;28;20477;-75
2022/05/20 01:37:54;;;;;;;12.35;5.22;;;18.50;99.90;;;;;;5013726;28;20048;-75
2022/05/20 01:40:20;;;;;;;14.15;5.10;;;18.50;99.90;;;;;;5013005;28;20485;-75
2022/05/20 01:43:03;;;;;;;17.15;4.95;;;18.50;99.90;;;;;;5012971;28;20026;-75
2022/05/20 01:45:49;;;;;;;10.43;4.75;;;18.50;99.90;;;;;;5013890;28;20029;-75
2022/05/20 01:48:31;;;;;;;13.98;4.68;;;18.50;99.90;;;;;;5013157;28;20047;-75
2022/05/20 01:50:57;;;;;;;16.08;4.63;;;18.50;99.90;;;;;;5013806;28;20033;-75
2022/05/20 01:53:36;;;;;;;14.23;5.05;;;18.40;99.90;;;;;;5013199;28;20026;-75
2022/05/20 01:56:29;;;;;;;10.90;4.30;;;18.50;99.90;;;;;;5010238;28;20049;-75
2022/05/20 01:59:07;;;;;;;12.25;4.65;;;18.50;99.90;;;;;;5013511;28;20026;-75
2022/05/20 02:01:48;;;;;;;9.35;4.68;;;18.50;99.90;;;;;;5011749;28;20509;-75
2022/05/20 02:04:20;;;;;;;12.82;4.45;;;18.50;99.90;;;;;;5013313;28;20600;-75
2022/05/20 02:06:52;;;;;;;19.15;4.28;;;18.50;99.90;;;;;;5012760;28;20057;-75
2022/05/20 02:09:28;;;;;;;11.65;4.35;;;18.50;99.90;;;;;;5012374;28;20033;-75
2022/05/20 02:11:55;;;;;;;9.68;4.13;;;18.50;99.90;;;;;;5013358;28;20030;-75
2022/05/20 02:14:31;;;;;;;15.35;4.20;;;18.50;99.90;;;;;;5011604;28;20437;-75
2022/05/20 02:17:13;;;;;;;12.75;5.00;;;18.50;99.90;;;;;;5013237;28;20030;-75
2022/05/20 02:19:44;;;;;;;;;;;18.50;99.90;;;;;;5013564;28;20105;-75
2022/05/20 02:22:19;;;;;;;16.17;4.57;;;18.50;99.90;;;;;;5012799;28;19909;-75
2022/05/20 02:24:47;;;;;;;19.33;4.45;;;18.60;99.90;;;;;;5011815;28;20025;-75
2022/05/20 02:27:19;;;;;;;11.70;4.07;;;18.50;99.90;;;;;;5012672;28;20014;-75
2022/05/20 02:29:59;;;;;;;12.15;4.50;;;18.50;99.90;;;;;;5012633;28;20022;-75
2022/05/20 02:32:31;;;;;;;16.40;4.65;;;18.50;99.90;;;;;;5012594;28;20049;-75
2022/05/20 02:34:57;;;;;;;;;;;18.50;99.90;;;;;;5012610;28;20021;-75
2022/05/20 02:37:28;;;;;;;10.10;3.53;;;18.50;99.90;;;;;;5001876;28;20289;-75
2022/05/20 02:39:54;;;;;;;17.10;4.30;;;18.50;99.90;;;;;;5010684;28;20022;-75
2022/05/20 02:42:20;;;;;;;12.93;4.30;;;18.50;99.90;;;;;;5012532;28;20390;-75
2022/05/20 02:44:46;;;;;;;12.52;4.85;;;18.50;99.90;;;;;;5012276;28;20025;-75
2022/05/20 02:47:12;;;;;;;12.23;3.92;;;18.50;99.90;;;;;;5012600;28;20026;-75
2022/05/20 02:49:38;;;;;;;10.95;3.75;;;18.50;99.90;;;;;;5011344;28;20018;-75
2022/05/20 02:52:04;;;;;;;9.85;4.65;;;18.50;99.90;;;;;;5003184;28;20027;-75
2022/05/20 02:54:30;;;;;;;9.20;3.92;;;18.50;99.90;;;;;;4992908;28;20537;-75
2022/05/20 02:56:56;;;;;;;15.75;4.78;;;18.50;99.90;;;;;;4992510;28;20033;-75
2022/05/20 03:04:51;;;;;;;10.65;3.88;;;18.50;99.90;;;;;;5012200;28;20499;-75
2022/05/20 03:07:17;;;;;;;12.00;4.63;;;18.50;99.90;;;;;;5011829;28;20504;-75
2022/05/20 03:09:43;;;;;;;10.48;3.83;;;18.40;99.90;;;;;;5012336;28;20022;-75
2022/05/20 03:12:10;;;;;;;16.05;4.10;;;18.40;99.90;;;;;;5012235;28;20041;-75
2022/05/20 03:14:36;;;;;;;10.55;4.40;;;18.50;99.90;;;;;;5012499;28;20033;-75
2022/05/20 03:17:03;;;;;;;11.30;4.50;;;18.50;99.90;;;;;;5000252;28;20117;-75
2022/05/20 03:19:30;;;;;;;8.38;3.95;;;18.40;99.90;;;;;;5004017;28;20033;-75
2022/05/20 03:21:57;;;;;;;10.45;4.15;;;18.50;99.90;;;;;;5009657;28;20030;-75
2022/05/20 03:24:23;;;;;;;14.85;4.93;;;18.50;99.90;;;;;;4995328;28;20116;-75
2022/05/20 03:26:49;;;;;;;12.80;4.47;;;18.50;99.90;;;;;;5010344;28;20109;-75
2022/05/20 03:29:16;;;;;;;10.48;4.25;;;18.50;99.90;;;;;;5012253;28;20030;-75
2022/05/20 03:31:42;;;;;;;16.33;5.25;;;18.50;99.90;;;;;;5011835;28;20034;-75
2022/05/20 03:34:09;;;;;;;10.88;4.47;;;18.50;99.90;;;;;;5011942;28;20028;-75
2022/05/20 03:36:39;;;;;;;11.98;4.00;;;18.50;99.90;;;;;;5012192;28;20026;-75
2022/05/20 03:39:06;;;;;;;11.43;4.15;;;18.50;99.90;;;;;;4998283;28;20022;-75
2022/05/20 03:41:32;;;;;;;13.55;4.28;;;18.60;99.90;;;;;;5011794;28;20564;-75
2022/05/20 03:43:58;;;;;;;15.00;4.60;;;18.50;99.90;;;;;;5012016;28;20022;-75
2022/05/20 03:46:24;;;;;;;12.10;4.30;;;18.50;99.90;;;;;;5014064;28;20026;-75
2022/05/20 03:48:51;;;;;;;20.80;5.20;;;18.50;99.90;;;;;;5015191;28;20112;-75
2022/05/20 03:51:16;;;;;;;12.73;5.03;;;18.60;99.90;;;;;;5015442;28;20411;-75
2022/05/20 03:53:42;;;;;;;14.32;4.60;;;18.60;99.90;;;;;;5015481;28;20056;-75
2022/05/20 03:56:08;;;;;;;14.50;3.97;;;18.60;99.90;;;;;;4996556;28;20375;-75
2022/05/20 03:58:35;;;;;;;14.20;4.50;;;18.50;99.90;;;;;;4996363;28;20026;-75
2022/05/20 04:03:46;;;;;;;6.57;3.92;;;18.50;99.90;;;;;;4995687;28;20030;-75
2022/05/20 04:06:13;;;;;;;9.20;4.00;;;18.50;99.90;;;;;;4996372;28;20022;-75
2022/05/20 04:08:39;;;;;;;10.95;5.05;;;18.50;99.90;;;;;;5015180;28;20501;-75
2022/05/20 04:11:06;;;;;;;13.80;4.32;;;18.50;99.90;;;;;;5015177;28;20030;-75
2022/05/20 04:13:33;;;;;;;11.27;3.90;;;18.50;99.90;;;;;;5015078;28;20053;-75
2022/05/20 04:15:59;;;;;;;12.65;4.38;;;18.50;99.90;;;;;;5013246;28;20041;-75
2022/05/20 04:18:24;;;;;;;15.55;4.63;;;18.50;99.90;;;;;;5013759;28;20030;-75
2022/05/20 04:20:50;;;;;;;11.25;3.28;;;18.60;99.90;;;;;;5014409;28;20076;-75
2022/05/20 04:23:18;;;;;;;15.13;4.50;;;18.60;99.90;;;;;;5015621;28;20041;-75
2022/05/20 04:25:44;;;;;;;12.13;4.30;;;18.50;99.90;;;;;;5015079;28;20026;-75
2022/05/20 04:28:11;;;;;;;20.05;4.45;;;18.60;99.90;;;;;;5015058;28;20033;-75
2022/05/20 04:30:37;;;;;;;11.13;4.15;;;18.50;99.90;;;;;;5012636;28;20374;-75
2022/05/20 04:33:03;;;;;;;10.68;4.05;;;18.60;99.90;;;;;;5013058;28;20059;-76
2022/05/20 04:35:28;;;;;;;12.63;4.70;;;18.50;99.90;;;;;;5027075;28;20037;-76
2022/05/20 04:37:54;;;;;;;13.68;3.95;;;18.60;99.90;;;;;;5014744;28;20029;-76
2022/05/20 04:40:20;;;;;;;10.23;4.30;;;18.60;99.90;;;;;;5011883;28;20100;-76
2022/05/20 04:48:14;;;;;;;10.18;4.28;;;18.70;99.90;;;;;;4998205;28;20029;-75
2022/05/20 04:50:40;;;;;;;13.48;4.03;;;18.60;99.90;;;;;;5014364;28;20022;-75
2022/05/20 04:53:06;;;;;;;13.00;4.38;;;18.60;99.90;;;;;;5003102;28;20045;-75
2022/05/20 04:55:32;;;;;;;12.50;3.60;;;18.70;99.90;;;;;;5013110;28;20104;-75
2022/05/20 04:57:58;;;;;;;11.40;4.68;;;18.70;99.90;;;;;;5014800;28;20106;-75
2022/05/20 05:00:27;;;;;;;13.32;4.18;;;18.70;99.90;;;;;;5000175;28;20030;-75
2022/05/20 05:02:53;;;;;;;12.75;4.10;;;18.70;99.90;;;;;;5008857;28;20842;-75
2022/05/20 05:05:22;;;;;;;11.07;4.53;;;18.70;99.90;;;;;;5003052;28;20040;-75
2022/05/20 05:07:50;;;;;;;11.95;4.53;;;18.70;99.90;;;;;;5006864;28;20022;-75
2022/05/20 05:10:19;;;;;;;14.35;4.28;;;18.70;99.90;;;;;;5009553;28;20079;-75
2022/05/20 05:12:45;;;;;;;15.32;4.53;;;18.70;99.90;;;;;;5008075;28;20022;-75
2022/05/20 05:15:12;;;;;;;15.85;4.55;;;18.70;99.90;;;;;;5011959;28;20045;-76
2022/05/20 10:26:32;;;;;;;15.55;3.30;;;26.80;92.50;;;;;;6130096;23;21035;31
2022/05/20 10:32:35;;;;;;;12.13;3.75;;;26.20;91.30;;;;;;4993835;28;20029;-73
2022/05/20 10:35:06;;;;;;;11.15;3.50;;;26.40;90.70;;;;;;4992593;28;20027;-74
2022/05/20 10:37:37;;;;;;;8.15;3.53;;;25.70;91.80;;;;;;4994106;28;20033;-77
2022/05/20 10:40:31;;;;;;;11.85;3.47;;;26.10;92.20;;;;;;4993550;28;20030;-74
2022/05/20 10:43:23;;;;;;;15.13;3.78;;;26.30;90.70;;;;;;4992606;28;20466;-73
2022/05/20 10:48:56;;;;;;;15.65;3.20;;;26.40;90.20;;;;;;4993686;28;20549;-73
2022/05/20 10:51:24;;;;;;;20.77;3.88;;;26.50;90.30;;;;;;4992932;28;20023;-73
2022/05/20 10:54:10;;;;;;;8.70;3.08;;;26.30;90.30;;;;;;4992661;28;20034;-73
2022/05/20 10:57:08;;;;;;;11.05;3.90;;;25.80;90.70;;;;;;4981179;28;20027;-74
2022/05/20 10:59:48;;;;;;;18.35;3.88;;;25.90;90.60;;;;;;4991644;28;20041;-74
2022/05/20 11:02:17;;;;;;;12.85;3.50;;;25.80;90.40;;;;;;4987974;28;20068;-73
2022/05/20 11:04:58;;;;;;;11.32;3.45;;;26.30;90.20;;;;;;4992696;28;20022;-73
2022/05/20 11:07:53;;;;;;;10.68;3.85;;;26.70;89.40;;;;;;4993171;28;20532;-74
2022/05/20 11:10:22;;;;;;;15.07;3.75;;;26.80;89.60;;;;;;4992191;28;20042;-73
2022/05/20 11:12:48;;;;;;;14.82;3.33;;;27.20;88.10;;;;;;4992437;28;20026;-74
2022/05/20 11:15:29;;;;;;;22.50;3.78;;;27.20;85.70;;;;;;5002374;28;20026;-73
2022/05/20 17:25:42;;;;;;;12.73;4.13;;;27.80;81.40;;;;;;5013733;28;20041;-73
2022/05/20 17:28:07;;;;;;;11.38;4.13;;;27.80;81.00;;;;;;5014471;28;20026;-80
2022/05/20 17:30:33;;;;;;;21.50;3.83;;;27.80;83.10;;;;;;5014077;28;20036;-75
2022/05/20 17:32:59;;;;;;;15.82;3.97;;;27.80;80.90;;;;;;5014656;28;20040;-74
2022/05/20 17:35:25;;;;;;;14.00;4.03;;;27.80;82.10;;;;;;5014133;28;20506;-75
2022/05/20 17:37:50;;;;;;;13.05;4.20;;;27.90;81.70;;;;;;5013008;28;20026;-75
2022/05/20 17:40:17;;;;;;;15.68;3.78;;;27.90;80.40;;;;;;5003302;28;20485;-75
2022/05/20 17:42:42;;;;;;;13.77;4.15;;;28.00;80.60;;;;;;5009292;28;20033;-75
2022/05/20 17:45:09;;;;;;;12.68;4.15;;;28.00;80.20;;;;;;5013268;28;20017;-75
2022/05/20 17:47:35;;;;;;;15.52;4.25;;;28.00;82.10;;;;;;5011480;28;20041;-75
2022/05/20 17:50:00;;;;;;;12.90;3.47;;;27.90;81.50;;;;;;5010689;28;20397;-75
2022/05/20 17:52:26;;;;;;;11.77;3.50;;;27.80;81.40;;;;;;5001978;28;20027;-75
2022/05/20 17:54:52;;;;;;;13.55;4.30;;;27.70;81.30;;;;;;4994170;28;20037;-75
2022/05/20 17:57:20;;;;;;;14.88;3.90;;;27.60;81.70;;;;;;4992575;28;20026;-75
2022/05/20 17:59:47;;;;;;;9.95;3.35;;;27.50;81.70;;;;;;4994875;28;20105;-75
2022/05/20 18:02:13;;;;;;;14.43;3.85;;;27.40;82.50;;;;;;5007674;28;20033;-77
2022/05/20 18:04:40;;;;;;;9.15;3.65;;;27.40;83.00;;;;;;5008538;28;20380;-76
2022/05/20 18:07:06;;;;;;;14.45;3.67;;;27.30;81.90;;;;;;5007621;28;20037;-76
2022/05/20 18:09:33;;;;;;;13.73;3.67;;;27.30;82.30;;;;;;5008263;28;20021;-75
2022/05/20 18:12:14;;;;;;;11.70;3.45;;;27.10;82.30;;;;;;5009762;28;20028;-76
2022/05/20 18:14:46;;;;;;;10.35;3.10;;;27.00;82.60;;;;;;5007052;28;20476;-75
2022/05/20 18:17:20;;;;;;;9.70;3.65;;;26.90;83.40;;;;;;5002255;28;20032;-76
2022/05/20 18:19:45;;;;;;;11.27;3.85;;;26.90;83.90;;;;;;5005619;28;20027;-76
2022/05/20 18:22:12;;;;;;;10.27;3.55;;;26.80;83.90;;;;;;5010799;28;20529;-76
2022/05/20 18:24:43;;;;;;;12.60;3.53;;;26.70;84.30;;;;;;5030247;28;20041;-76
2022/05/20 18:27:12;;;;;;;13.10;3.88;;;26.70;84.40;;;;;;5023699;28;20111;-76
2022/05/20 18:29:39;;;;;;;11.13;3.30;;;26.50;84.50;;;;;;5029258;28;20025;-76
2022/05/20 18:32:06;;;;;;;13.05;3.15;;;26.40;84.80;;;;;;5032580;28;20025;-76
2022/05/20 18:40:01;;;;;;;10.45;2.90;;;26.10;83.70;;;;;;5003860;28;20037;-76
2022/05/20 18:42:27;;;;;;;19.00;3.08;;;26.00;84.20;;;;;;5018671;28;20080;-76
2022/05/20 18:44:54;;;;;;;14.25;3.58;;;25.90;83.40;;;;;;5032780;28;20405;-76
2022/05/20 18:47:23;;;;;;;8.43;2.70;;;25.70;83.60;;;;;;5032266;28;20017;-76
2022/05/20 18:49:53;;;;;;;9.35;3.05;;;25.60;83.20;;;;;;5027903;28;20101;-76
2022/05/20 18:52:20;;;;;;;11.57;2.80;;;25.50;83.70;;;;;;5020704;28;20500;-77
2022/05/20 18:54:46;;;;;;;7.25;3.03;;;25.40;84.20;;;;;;5011517;28;20437;-76
2022/05/20 18:57:20;;;;;;;11.10;3.20;;;25.40;84.40;;;;;;5016454;28;20025;-76
2022/05/20 18:59:46;;;;;;;9.52;3.33;;;25.30;85.10;;;;;;5032502;28;20060;-76
2022/05/20 19:02:15;;;;;;;11.77;3.17;;;25.10;85.30;;;;;;5014510;28;20042;-76
2022/05/20 19:04:41;;;;;;;10.13;3.22;;;25.00;86.00;;;;;;5011307;28;20097;-76
2022/05/20 19:07:07;;;;;;;9.80;3.38;;;24.90;86.80;;;;;;5011924;28;20030;-76
2022/05/20 19:09:34;;;;;;;7.40;2.63;;;24.80;87.00;;;;;;5009016;28;20068;-76
2022/05/20 19:12:00;;;;;;;10.13;2.92;;;24.70;87.40;;;;;;4993108;28;20026;-76
2022/05/20 19:14:26;;;;;;;15.90;3.45;;;24.60;88.00;;;;;;5011413;28;20206;-75
2022/05/20 19:16:52;;;;;;;10.88;3.22;;;24.60;88.20;;;;;;5011855;28;20116;-76
2022/05/20 19:19:19;;;;;;;11.40;3.17;;;24.60;88.50;;;;;;5012868;28;20415;-81
2022/05/20 19:21:46;;;;;;;11.40;3.10;;;24.40;89.60;;;;;;5012210;28;20044;-75
2022/05/20 19:24:12;;;;;;;10.52;3.00;;;24.30;90.00;;;;;;5011964;28;20120;-75
2022/05/20 19:26:38;;;;;;;11.10;3.22;;;24.30;90.40;;;;;;5014393;28;20021;-75
2022/05/20 19:29:04;;;;;;;11.80;3.05;;;24.20;90.50;;;;;;5022277;28;20092;-75
2022/05/20 19:31:30;;;;;;;8.02;2.95;;;24.20;90.80;;;;;;5019008;28;20858;-74
2022/05/20 19:33:57;;;;;;;10.57;2.83;;;24.10;90.90;;;;;;5016993;28;20022;-74
2022/05/20 19:36:23;;;;;;;12.75;3.78;;;24.00;91.10;;;;;;5019370;28;20018;-75
2022/05/20 19:38:50;;;;;;;14.82;3.45;;;23.90;91.30;;;;;;5015023;28;20101;-77
2022/05/20 19:41:16;;;;;;;11.40;3.22;;;23.80;91.60;;;;;;5019257;28;20025;-74
2022/05/20 19:43:43;;;;;;;8.48;3.30;;;23.70;91.80;;;;;;5014254;28;20067;-74
2022/05/20 19:46:09;;;;;;;9.15;3.53;;;23.70;91.80;;;;;;5021299;28;20439;-74
2022/05/20 19:48:35;;;;;;;11.18;3.20;;;23.60;92.10;;;;;;5023319;28;20477;-73
2022/05/20 19:51:02;;;;;;;10.77;3.60;;;23.60;92.70;;;;;;5014023;28;20061;-75
2022/05/20 19:53:28;;;;;;;18.20;3.80;;;23.50;92.80;;;;;;5017832;28;20018;-75
2022/05/20 19:55:54;;;;;;;9.30;3.05;;;23.50;93.20;;;;;;5019166;28;20489;-74
2022/05/20 20:01:05;;;;;;;10.00;3.53;;;23.30;93.70;;;;;;5024149;28;20447;-74
2022/05/20 20:03:34;;;;;;;8.68;3.13;;;23.20;93.80;;;;;;5010615;28;20022;-74
2022/05/20 20:06:02;;;;;;;9.95;3.47;;;23.20;94.00;;;;;;5007673;28;20026;-74
2022/05/20 20:08:29;;;;;;;15.25;3.50;;;23.30;93.90;;;;;;5016601;28;20024;-78
2022/05/20 20:10:55;;;;;;;7.55;3.45;;;23.40;93.90;;;;;;5016507;28;20021;-74
2022/05/20 20:13:23;;;;;;;7.60;3.13;;;23.20;94.20;;;;;;5017435;28;20097;-74
2022/05/20 20:15:50;;;;;;;9.65;3.58;;;23.10;94.30;;;;;;5017170;28;20152;-75
2022/05/20 20:18:17;;;;;;;12.68;3.53;;;23.20;94.50;;;;;;5016461;28;20028;-74
2022/05/20 20:20:44;;;;;;;13.95;3.97;;;23.20;94.80;;;;;;5019887;28;20017;-74
2022/05/20 20:26:05;;;;;;;8.45;2.67;;;23.10;95.30;;;;;;5005241;28;20084;-74
2022/05/20 20:28:32;;;;;;;12.38;3.22;;;23.00;95.20;;;;;;5020511;28;20033;-74
2022/05/20 20:30:59;;;;;;;9.82;3.60;;;22.90;95.70;;;;;;5024633;28;20626;-74
2022/05/20 20:33:24;;;;;;;12.75;4.10;;;22.80;95.50;;;;;;5021469;28;20428;-75
2022/05/20 20:35:50;;;;;;;10.00;3.20;;;22.80;95.50;;;;;;5013798;28;21157;-74
2022/05/20 20:38:15;;;;;;;12.60;3.17;;;22.80;95.60;;;;;;5014594;28;20370;-74
2022/05/20 20:40:41;;;;;;;10.82;3.53;;;22.70;95.70;;;;;;5014334;28;20040;-74
2022/05/20 20:43:08;;;;;;;8.60;3.25;;;22.70;95.80;;;;;;5014268;28;20034;-74
2022/05/20 20:45:35;;;;;;;13.38;3.90;;;22.60;95.90;;;;;;5013711;28;20030;-74
2022/05/20 20:48:00;;;;;;;13.52;3.92;;;22.50;95.90;;;;;;4999890;28;20018;-75
2022/05/20 20:50:28;;;;;;;11.70;3.80;;;22.50;96.00;;;;;;5014767;28;20045;-75
2022/05/20 20:52:55;;;;;;;12.05;3.70;;;22.50;95.90;;;;;;5014182;28;20441;-75
2022/05/20 20:55:23;;;;;;;12.88;3.97;;;22.30;96.40;;;;;;5015351;28;20029;-75
2022/05/20 20:57:49;;;;;;;10.38;3.45;;;22.20;96.70;;;;;;5014108;28;20117;-74
2022/05/20 21:00:15;;;;;;;13.98;4.22;;;22.20;96.80;;;;;;5014487;28;20093;-74
2022/05/20 21:02:41;;;;;;;7.18;3.75;;;22.30;96.90;;;;;;5013869;28;20030;-74
2022/05/20 21:05:07;;;;;;;13.32;4.30;;;22.30;96.90;;;;;;5014716;28;20037;-74
2022/05/20 21:07:33;;;;;;;10.88;3.90;;;22.30;97.00;;;;;;5014797;28;20457;-74
2022/05/20 21:09:58;;;;;;;9.43;3.42;;;22.20;97.10;;;;;;5014326;28;20037;-74
2022/05/20 21:12:26;;;;;;;10.13;3.78;;;22.20;97.40;;;;;;5014513;28;20374;-74
2022/05/20 21:15:03;;;;;;;11.20;3.33;;;22.10;97.50;;;;;;5014148;28;20080;-74
2022/05/20 21:17:29;;;;;;;12.98;3.92;;;22.10;97.60;;;;;;5019673;28;20052;-75
2022/05/20 21:19:55;;;;;;;18.10;3.88;;;22.10;97.60;;;;;;5014756;28;20477;-75
2022/05/20 21:22:22;;;;;;;10.63;3.45;;;22.20;97.40;;;;;;5013679;28;20033;-74
2022/05/20 21:24:48;;;;;;;28.13;5.07;;;22.20;97.70;;;;;;5013545;28;20076;-74
2022/05/20 21:27:14;;;;;;;14.40;3.53;;;22.00;97.90;;;;;;5013944;28;20076;-74
2022/05/20 21:29:41;;;;;;;11.07;3.50;;;21.90;98.00;;;;;;5013244;28;20043;-75
2022/05/20 21:32:08;;;;;;;15.98;3.22;;;21.90;98.20;;;;;;5013683;28;20469;-74
2022/05/20 21:34:34;;;;;;;12.55;3.58;;;21.90;98.10;;;;;;5012932;28;20053;-74
2022/05/20 21:37:00;;;;;;;16.00;3.50;;;21.80;98.50;;;;;;5013931;28;20401;-74
2022/05/20 21:39:26;;;;;;;11.57;4.18;;;21.60;98.90;;;;;;5013103;28;20033;-74
2022/05/20 21:41:52;;;;;;;11.65;3.40;;;21.70;98.90;;;;;;5030940;28;20029;-74
2022/05/20 21:44:19;;;;;;;10.63;3.63;;;21.70;98.90;;;;;;5019081;28;20025;-74
2022/05/20 21:46:48;;;;;;;13.38;4.25;;;21.70;98.80;;;;;;5012672;28;20026;-74
2022/05/20 21:49:18;;;;;;;12.63;3.55;;;21.60;99.00;;;;;;5013775;28;20026;-74
2022/05/20 21:51:46;;;;;;;14.10;3.67;;;21.60;99.10;;;;;;5013767;28;20103;-74
2022/05/20 21:54:13;;;;;;;12.20;4.18;;;21.60;98.90;;;;;;5012109;28;20463;-74
2022/05/20 21:56:40;;;;;;;16.75;3.38;;;21.50;99.10;;;;;;5013202;28;20118;-74
2022/05/20 21:59:10;;;;;;;12.77;3.63;;;21.40;99.80;;;;;;5013099;28;20029;-74
2022/05/20 22:09:50;;;;;;;11.98;3.75;;;21.10;99.90;;;;;;5033279;28;20056;-74
2022/05/20 22:12:16;;;;;;;10.35;3.88;;;21.10;99.90;;;;;;5032735;28;20077;-74
2022/05/20 22:14:41;;;;;;;9.55;3.38;;;21.10;99.90;;;;;;5032919;28;20500;-74
2022/05/20 22:17:07;;;;;;;12.13;4.00;;;21.20;99.90;;;;;;5024198;28;20037;-74
2022/05/20 22:19:33;;;;;;;12.38;3.97;;;21.30;99.90;;;;;;5013071;28;20470;-74
2022/05/20 22:21:59;;;;;;;12.90;3.80;;;21.20;99.90;;;;;;5012656;28;20022;-74
2022/05/20 22:24:31;;;;;;;11.77;3.58;;;21.10;99.90;;;;;;5012869;28;20046;-74
2022/05/20 22:26:59;;;;;;;14.73;3.50;;;21.10;99.90;;;;;;5012556;28;20405;-74
2022/05/20 22:29:25;;;;;;;10.77;4.03;;;21.10;99.90;;;;;;5012862;28;20092;-74
2022/05/20 22:31:51;;;;;;;13.63;3.80;;;21.00;99.90;;;;;;5013228;28;20148;-74
2022/05/20 22:34:18;;;;;;;14.40;4.18;;;20.90;99.90;;;;;;5012608;28;20037;-74
2022/05/20 22:36:44;;;;;;;10.63;3.30;;;20.90;99.90;;;;;;5012865;28;20104;-74
2022/05/20 22:39:10;;;;;;;15.93;4.78;;;20.80;99.90;;;;;;5011968;28;20049;-74
2022/05/20 22:41:36;;;;;;;14.02;3.80;;;20.80;99.90;;;;;;5012157;28;20108;-74
2022/05/20 22:44:03;;;;;;;17.83;4.47;;;20.80;99.90;;;;;;5012584;28;20451;-74
2022/05/20 22:46:28;;;;;;;16.60;3.75;;;20.80;99.90;;;;;;5011312;28;20489;-74
2022/05/20 22:48:54;;;;;;;11.95;3.80;;;20.70;99.90;;;;;;5012535;28;20022;-74
2022/05/20 22:51:20;;;;;;;9.77;3.88;;;20.70;99.90;;;;;;5014255;28;20489;-74
2022/05/20 22:53:46;;;;;;;12.23;3.97;;;20.70;99.90;;;;;;5032102;28;20028;-74
2022/05/20 22:56:16;;;;;;;13.32;4.30;;;20.70;99.90;;;;;;5031922;28;20029;-74
2022/05/20 22:58:44;;;;;;;13.85;3.72;;;20.60;99.90;;;;;;5032178;28;20091;-74
2022/05/20 23:01:19;;;;;;;9.43;3.67;;;20.70;99.90;;;;;;5013130;28;20038;-74
2022/05/20 23:03:46;;;;;;;14.02;4.05;;;20.60;99.90;;;;;;5012231;28;20077;-74
2022/05/20 23:06:12;;;;;;;13.40;3.30;;;20.60;99.90;;;;;;5022151;28;20028;-74
2022/05/20 23:08:38;;;;;;;15.05;3.42;;;20.50;99.90;;;;;;5031884;28;20531;-74
2022/05/20 23:11:06;;;;;;;12.48;4.20;;;20.50;99.90;;;;;;5031977;28;20026;-74
2022/05/20 23:13:32;;;;;;;14.85;3.70;;;20.40;99.90;;;;;;5032094;28;20466;-74
2022/05/20 23:15:58;;;;;;;12.93;3.72;;;20.40;99.90;;;;;;5012009;28;20040;-74
2022/05/20 23:18:25;;;;;;;12.65;3.80;;;20.40;99.90;;;;;;5012223;28;20452;-74
2022/05/20 23:20:51;;;;;;;12.63;4.40;;;20.40;99.90;;;;;;5015039;28;20017;-74
2022/05/20 23:23:19;;;;;;;14.20;4.20;;;20.30;99.90;;;;;;5019627;28;20034;-74
2022/05/20 23:25:46;;;;;;;10.05;3.85;;;20.20;99.90;;;;;;5011876;28;20397;-74
2022/05/20 23:28:12;;;;;;;17.75;3.90;;;20.30;99.90;;;;;;5011614;28;20029;-74
2022/05/20 23:30:38;;;;;;;14.85;3.65;;;20.30;99.90;;;;;;5012032;28;20030;-74
2022/05/20 23:33:04;;;;;;;15.27;4.00;;;20.20;99.90;;;;;;5011406;28;20049;-74
2022/05/20 23:35:31;;;;;;;11.50;3.60;;;20.10;99.90;;;;;;5011873;28;20501;-74
2022/05/20 23:37:58;;;;;;;12.15;4.25;;;20.20;99.90;;;;;;5012375;28;20037;-74
2022/05/20 23:40:24;;;;;;;9.60;3.42;;;20.20;99.90;;;;;;5011508;28;20501;-74
2022/05/20 23:42:51;;;;;;;13.85;3.65;;;20.20;99.90;;;;;;5012231;28;20037;-74
2022/05/20 23:45:17;;;;;;;11.38;3.83;;;20.20;99.90;;;;;;5011860;28;20497;-74
2022/05/20 23:47:44;;;;;;;13.20;3.38;;;20.00;99.90;;;;;;5010454;28;20429;-74
2022/05/20 23:50:10;;;;;;;10.27;3.80;;;20.10;99.90;;;;;;5012024;28;20026;-74
2022/05/20 23:52:37;;;;;;;12.70;3.80;;;19.90;99.90;;;;;;5011788;28;20034;-74
2022/05/20 23:57:54;;;;;;;14.05;4.25;;;19.90;99.90;;;;;;5031733;28;20037;-74
